sensor_id;sensor_type;location;lat;lon;timestamp;pressure;altitude;pressure_sealevel;temperature;humidity
13312;BME280;34033;48.672;9.376;2023-02-20T00:01:29;99672.78;;;9.79;75.51
13312;BME280;34033;48.672;9.376;2023-02-20T00:03:55;99671.06;;;9.75;76.01
13312;BME280;34033;48.672;9.376;2023-02-20T00:06:20;99678.16;;;9.72;75.78
13312;BME280;34033;48.672;9.376;2023-02-20T00:08:46;99679.88;;;9.77;75.52
13312;BME280;34033;48.672;9.376;2023-02-20T00:11:11;99682.88;;;9.84;75.59
13312;BME280;34033;48.672;9.376;2023-02-20T00:13:36;99679.88;;;9.77;75.18
13312;BME280;34033;48.672;9.376;2023-02-20T00:16:02;99668.56;;;9.85;75.39
13312;BME280;34033;48.672;9.376;2023-02-20T00:18:28;99671.47;;;9.89;74.98
13312;BME280;34033;48.672;9.376;2023-02-20T00:20:53;99673.28;;;9.97;74.61
13312;BME280;34033;48.672;9.376;2023-02-20T00:23:19;99667.59;;;9.93;74.07
13312;BME280;34033;48.672;9.376;2023-02-20T00:25:45;99666.06;;;9.96;73.91
13312;BME280;34033;48.672;9.376;2023-02-20T00:28:10;99664.72;;;9.90;73.87
13312;BME280;34033;48.672;9.376;2023-02-20T00:30:35;99663.28;;;9.96;74.28
13312;BME280;34033;48.672;9.376;2023-02-20T00:33:01;99659.75;;;9.99;73.66
13312;BME280;34033;48.672;9.376;2023-02-20T00:35:27;99657.34;;;9.97;73.37
13312;BME280;34033;48.672;9.376;2023-02-20T00:37:53;99667.78;;;10.00;73.61
13312;BME280;34033;48.672;9.376;2023-02-20T00:40:21;99666.59;;;9.86;73.44
13312;BME280;34033;48.672;9.376;2023-02-20T00:42:47;99671.16;;;9.78;73.43
13312;BME280;34033;48.672;9.376;2023-02-20T00:45:13;99666.03;;;9.80;73.65
13312;BME280;34033;48.672;9.376;2023-02-20T00:47:40;99672.06;;;9.82;73.71
13312;BME280;34033;48.672;9.376;2023-02-20T00:50:06;99675.22;;;9.81;73.71
13312;BME280;34033;48.672;9.376;2023-02-20T00:52:32;99677.34;;;9.72;73.84
13312;BME280;34033;48.672;9.376;2023-02-20T00:54:57;99693.03;;;9.76;73.69
13312;BME280;34033;48.672;9.376;2023-02-20T00:57:23;99692.59;;;9.74;74.04
13312;BME280;34033;48.672;9.376;2023-02-20T00:59:48;99695.03;;;9.76;73.32
13312;BME280;34033;48.672;9.376;2023-02-20T01:02:14;99697.41;;;9.61;73.77
13312;BME280;34033;48.672;9.376;2023-02-20T01:04:39;99693.09;;;9.64;73.80
13312;BME280;34033;48.672;9.376;2023-02-20T01:07:05;99694.00;;;9.68;73.49
13312;BME280;34033;48.672;9.376;2023-02-20T01:09:30;99693.66;;;9.70;73.17
13312;BME280;34033;48.672;9.376;2023-02-20T01:11:56;99683.75;;;9.72;73.00
13312;BME280;34033;48.672;9.376;2023-02-20T01:14:21;99684.88;;;9.83;73.02
13312;BME280;34033;48.672;9.376;2023-02-20T01:16:49;99695.22;;;9.83;71.90
13312;BME280;34033;48.672;9.376;2023-02-20T01:19:16;99695.78;;;9.88;72.41
13312;BME280;34033;48.672;9.376;2023-02-20T01:21:42;99690.06;;;9.97;72.07
13312;BME280;34033;48.672;9.376;2023-02-20T01:24:08;99686.88;;;9.98;71.62
13312;BME280;34033;48.672;9.376;2023-02-20T01:26:33;99680.13;;;9.99;72.00
13312;BME280;34033;48.672;9.376;2023-02-20T01:29:01;99661.47;;;10.03;71.83
13312;BME280;34033;48.672;9.376;2023-02-20T01:31:26;99661.47;;;10.03;71.92
13312;BME280;34033;48.672;9.376;2023-02-20T01:33:51;99665.00;;;10.00;71.78
13312;BME280;34033;48.672;9.376;2023-02-20T01:36:17;99658.88;;;9.95;72.17
13312;BME280;34033;48.672;9.376;2023-02-20T01:38:42;99664.38;;;9.91;72.18
13312;BME280;34033;48.672;9.376;2023-02-20T01:41:08;99662.25;;;9.88;72.59
13312;BME280;34033;48.672;9.376;2023-02-20T01:43:34;99668.84;;;9.80;73.44
13312;BME280;34033;48.672;9.376;2023-02-20T01:49:00;99655.56;;;9.77;73.98
13312;BME280;34033;48.672;9.376;2023-02-20T01:51:33;99657.09;;;9.75;73.95
13312;BME280;34033;48.672;9.376;2023-02-20T01:54:00;99658.19;;;9.70;73.61
13312;BME280;34033;48.672;9.376;2023-02-20T01:56:26;99657.25;;;9.66;74.30
13312;BME280;34033;48.672;9.376;2023-02-20T01:58:52;99662.72;;;9.62;74.21
13312;BME280;34033;48.672;9.376;2023-02-20T02:01:18;99661.19;;;9.65;74.26
13312;BME280;34033;48.672;9.376;2023-02-20T02:03:46;99655.72;;;9.69;73.48
13312;BME280;34033;48.672;9.376;2023-02-20T02:06:13;99654.00;;;9.64;74.00
13312;BME280;34033;48.672;9.376;2023-02-20T02:08:41;99655.59;;;9.65;73.97
13312;BME280;34033;48.672;9.376;2023-02-20T02:13:36;99660.72;;;9.75;73.86
13312;BME280;34033;48.672;9.376;2023-02-20T02:21:28;99643.69;;;9.80;73.82
13312;BME280;34033;48.672;9.376;2023-02-20T02:35:20;99628.88;;;9.64;73.94
13312;BME280;34033;48.672;9.376;2023-02-20T02:40:46;99625.97;;;9.60;73.75
13312;BME280;34033;48.672;9.376;2023-02-20T02:45:54;99636.81;;;9.50;73.86
13312;BME280;34033;48.672;9.376;2023-02-20T02:48:29;99639.31;;;9.39;74.89
13312;BME280;34033;48.672;9.376;2023-02-20T02:51:09;99638.38;;;9.47;74.59
13312;BME280;34033;48.672;9.376;2023-02-20T02:53:37;99638.38;;;9.47;74.50
13312;BME280;34033;48.672;9.376;2023-02-20T02:56:02;99626.13;;;9.52;73.97
13312;BME280;34033;48.672;9.376;2023-02-20T02:58:49;99629.91;;;9.59;73.48
13312;BME280;34033;48.672;9.376;2023-02-20T03:01:18;99629.31;;;9.66;73.34
13312;BME280;34033;48.672;9.376;2023-02-20T03:03:46;99635.47;;;9.72;73.41
13312;BME280;34033;48.672;9.376;2023-02-20T03:06:16;99634.38;;;9.76;72.73
13312;BME280;34033;48.672;9.376;2023-02-20T03:11:19;99632.31;;;9.73;72.84
13312;BME280;34033;48.672;9.376;2023-02-20T03:13:56;99630.03;;;9.63;72.90
13312;BME280;34033;48.672;9.376;2023-02-20T03:16:50;99629.31;;;9.66;72.80
13312;BME280;34033;48.672;9.376;2023-02-20T03:19:24;99625.88;;;9.57;72.81
13312;BME280;34033;48.672;9.376;2023-02-20T03:21:54;99623.94;;;9.45;73.41
13312;BME280;34033;48.672;9.376;2023-02-20T03:24:23;99621.06;;;9.42;73.41
13312;BME280;34033;48.672;9.376;2023-02-20T03:26:52;99622.88;;;9.50;73.56
13312;BME280;34033;48.672;9.376;2023-02-20T03:29:24;99616.84;;;9.48;73.54
13312;BME280;34033;48.672;9.376;2023-02-20T03:32:11;99617.88;;;9.43;73.15
13312;BME280;34033;48.672;9.376;2023-02-20T03:34:56;99623.63;;;9.35;73.65
13312;BME280;34033;48.672;9.376;2023-02-20T03:37:42;99621.00;;;9.26;73.85
13312;BME280;34033;48.672;9.376;2023-02-20T03:40:28;99624.81;;;9.21;74.06
13312;BME280;34033;48.672;9.376;2023-02-20T03:43:17;99623.44;;;9.15;73.91
13312;BME280;34033;48.672;9.376;2023-02-20T03:45:48;99635.66;;;9.11;74.53
13312;BME280;34033;48.672;9.376;2023-02-20T03:48:23;99635.78;;;9.14;74.76
13312;BME280;34033;48.672;9.376;2023-02-20T03:50:51;99635.06;;;9.17;74.64
13312;BME280;34033;48.672;9.376;2023-02-20T03:53:17;99639.00;;;9.16;74.39
13312;BME280;34033;48.672;9.376;2023-02-20T03:55:44;99637.59;;;9.23;74.07
13312;BME280;34033;48.672;9.376;2023-02-20T03:58:14;99637.38;;;9.28;73.90
13312;BME280;34033;48.672;9.376;2023-02-20T04:00:44;99648.78;;;9.23;74.07
13312;BME280;34033;48.672;9.376;2023-02-20T04:03:15;99638.56;;;9.14;74.65
13312;BME280;34033;48.672;9.376;2023-02-20T04:05:44;99653.19;;;9.24;74.30
13312;BME280;34033;48.672;9.376;2023-02-20T04:08:15;99641.69;;;9.25;73.60
13312;BME280;34033;48.672;9.376;2023-02-20T04:10:46;99635.28;;;9.25;73.26
13312;BME280;34033;48.672;9.376;2023-02-20T04:13:14;99628.91;;;9.24;73.62
13312;BME280;34033;48.672;9.376;2023-02-20T04:15:40;99631.75;;;9.68;88.57
13312;BME280;34033;48.672;9.376;2023-02-20T04:20:31;99613.50;;;9.42;73.39
13312;BME280;34033;48.672;9.376;2023-02-20T04:23:03;99622.34;;;9.32;73.60
13312;BME280;34033;48.672;9.376;2023-02-20T04:25:42;99618.06;;;9.35;73.51
13312;BME280;34033;48.672;9.376;2023-02-20T04:28:10;99616.41;;;9.34;73.18
13312;BME280;34033;48.672;9.376;2023-02-20T04:30:35;99617.97;;;9.31;72.63
13312;BME280;34033;48.672;9.376;2023-02-20T04:33:01;99623.41;;;9.28;72.90
13312;BME280;34033;48.672;9.376;2023-02-20T04:35:26;99617.13;;;9.31;72.53
13312;BME280;34033;48.672;9.376;2023-02-20T04:37:52;99616.97;;;9.39;75.00
13312;BME280;34033;48.672;9.376;2023-02-20T04:40:20;99609.16;;;9.45;73.92
13312;BME280;34033;48.672;9.376;2023-02-20T04:42:45;99611.19;;;9.60;75.09
13312;BME280;34033;48.672;9.376;2023-02-20T04:45:11;99609.34;;;9.64;74.41
13312;BME280;34033;48.672;9.376;2023-02-20T04:47:36;99609.25;;;9.76;72.25
13312;BME280;34033;48.672;9.376;2023-02-20T04:50:02;99603.88;;;9.83;71.48
13312;BME280;34033;48.672;9.376;2023-02-20T04:52:27;99612.81;;;9.89;71.42
13312;BME280;34033;48.672;9.376;2023-02-20T04:54:52;99616.59;;;9.96;72.81
13312;BME280;34033;48.672;9.376;2023-02-20T04:57:18;99607.16;;;10.01;72.06
13312;BME280;34033;48.672;9.376;2023-02-20T04:59:43;99604.69;;;9.99;70.83
13312;BME280;34033;48.672;9.376;2023-02-20T05:02:09;99608.78;;;10.02;69.45
13312;BME280;34033;48.672;9.376;2023-02-20T05:04:35;99609.41;;;9.95;69.48
13312;BME280;34033;48.672;9.376;2023-02-20T05:07:00;99617.50;;;9.85;68.52
13312;BME280;34033;48.672;9.376;2023-02-20T05:09:26;99615.94;;;9.87;70.38
13312;BME280;34033;48.672;9.376;2023-02-20T05:11:52;99622.91;;;9.93;70.22
13312;BME280;34033;48.672;9.376;2023-02-20T05:14:18;99623.66;;;10.06;70.07
13312;BME280;34033;48.672;9.376;2023-02-20T05:16:44;99619.97;;;10.02;68.12
13312;BME280;34033;48.672;9.376;2023-02-20T05:19:10;99610.09;;;9.92;68.04
13312;BME280;34033;48.672;9.376;2023-02-20T05:21:36;99603.84;;;9.68;68.16
13312;BME280;34033;48.672;9.376;2023-02-20T05:24:20;99613.53;;;9.58;68.73
13312;BME280;34033;48.672;9.376;2023-02-20T05:26:45;99613.06;;;9.56;68.32
13312;BME280;34033;48.672;9.376;2023-02-20T05:29:11;99613.81;;;9.53;68.68
13312;BME280;34033;48.672;9.376;2023-02-20T05:31:40;99629.63;;;9.49;69.21
13312;BME280;34033;48.672;9.376;2023-02-20T05:34:07;99625.31;;;9.51;69.33
13312;BME280;34033;48.672;9.376;2023-02-20T05:36:33;99623.44;;;9.55;69.23
13312;BME280;34033;48.672;9.376;2023-02-20T05:38:58;99628.19;;;9.55;68.70
13312;BME280;34033;48.672;9.376;2023-02-20T05:41:24;99624.84;;;9.49;68.14
13312;BME280;34033;48.672;9.376;2023-02-20T05:43:49;99624.50;;;9.51;68.97
13312;BME280;34033;48.672;9.376;2023-02-20T05:46:15;99621.63;;;9.47;68.78
13312;BME280;34033;48.672;9.376;2023-02-20T05:48:41;99622.31;;;9.44;69.08
13312;BME280;34033;48.672;9.376;2023-02-20T05:51:07;99626.97;;;9.40;69.00
13312;BME280;34033;48.672;9.376;2023-02-20T05:53:32;99624.19;;;9.40;68.47
13312;BME280;34033;48.672;9.376;2023-02-20T05:55:58;99615.47;;;9.42;68.60
13312;BME280;34033;48.672;9.376;2023-02-20T05:58:24;99626.97;;;9.40;68.23
13312;BME280;34033;48.672;9.376;2023-02-20T06:00:50;99632.47;;;9.37;68.47
13312;BME280;34033;48.672;9.376;2023-02-20T06:03:16;99627.81;;;9.29;68.60
13312;BME280;34033;48.672;9.376;2023-02-20T06:05:42;99628.66;;;9.29;68.03
13312;BME280;34033;48.672;9.376;2023-02-20T06:08:08;99629.81;;;9.28;68.13
13312;BME280;34033;48.672;9.376;2023-02-20T06:10:33;99625.84;;;9.29;68.50
13312;BME280;34033;48.672;9.376;2023-02-20T06:12:58;99632.25;;;9.30;67.87
13312;BME280;34033;48.672;9.376;2023-02-20T06:15:24;99632.59;;;9.28;67.64
13312;BME280;34033;48.672;9.376;2023-02-20T06:17:50;99638.53;;;9.27;68.17
13312;BME280;34033;48.672;9.376;2023-02-20T06:20:15;99642.84;;;9.24;67.79
13312;BME280;34033;48.672;9.376;2023-02-20T06:22:41;99636.78;;;9.22;67.38
13312;BME280;34033;48.672;9.376;2023-02-20T06:25:06;99641.47;;;9.18;67.87
13312;BME280;34033;48.672;9.376;2023-02-20T06:27:32;99641.97;;;9.08;67.31
13312;BME280;34033;48.672;9.376;2023-02-20T06:29:57;99641.13;;;9.07;67.86
13312;BME280;34033;48.672;9.376;2023-02-20T06:32:23;99645.09;;;9.06;67.95
13312;BME280;34033;48.672;9.376;2023-02-20T06:34:49;99648.69;;;9.07;68.20
13312;BME280;34033;48.672;9.376;2023-02-20T06:37:14;99643.59;;;8.97;68.43
13312;BME280;34033;48.672;9.376;2023-02-20T06:39:40;99648.25;;;8.81;68.44
13312;BME280;34033;48.672;9.376;2023-02-20T06:42:07;99645.09;;;8.82;69.09
13312;BME280;34033;48.672;9.376;2023-02-20T06:44:32;99636.75;;;8.82;69.59
13312;BME280;34033;48.672;9.376;2023-02-20T06:46:59;99636.53;;;8.87;68.93
13312;BME280;34033;48.672;9.376;2023-02-20T06:49:24;99648.47;;;8.88;68.54
13312;BME280;34033;48.672;9.376;2023-02-20T06:51:53;99643.72;;;8.88;68.80
13312;BME280;34033;48.672;9.376;2023-02-20T06:54:19;99638.94;;;8.89;68.36
13312;BME280;34033;48.672;9.376;2023-02-20T06:56:46;99639.31;;;8.87;68.13
13312;BME280;34033;48.672;9.376;2023-02-20T06:59:13;99648.38;;;8.84;68.39
13312;BME280;34033;48.672;9.376;2023-02-20T07:01:40;99655.81;;;8.68;69.02
13312;BME280;34033;48.672;9.376;2023-02-20T07:04:08;99657.53;;;8.72;69.08
13312;BME280;34033;48.672;9.376;2023-02-20T07:06:35;99653.59;;;8.73;68.78
13312;BME280;34033;48.672;9.376;2023-02-20T07:09:01;99654.91;;;8.76;69.21
13312;BME280;34033;48.672;9.376;2023-02-20T07:11:27;99668.94;;;8.79;68.72
13312;BME280;34033;48.672;9.376;2023-02-20T07:13:52;99664.19;;;8.80;69.05
13312;BME280;34033;48.672;9.376;2023-02-20T07:16:17;99667.66;;;8.89;68.54
13312;BME280;34033;48.672;9.376;2023-02-20T07:18:43;99670.91;;;8.91;68.48
13312;BME280;34033;48.672;9.376;2023-02-20T07:21:08;99673.34;;;8.93;68.99
13312;BME280;34033;48.672;9.376;2023-02-20T07:23:34;99676.59;;;8.95;67.90
13312;BME280;34033;48.672;9.376;2023-02-20T07:25:59;99675.91;;;8.86;68.71
13312;BME280;34033;48.672;9.376;2023-02-20T07:28:25;99668.81;;;8.88;68.27
13312;BME280;34033;48.672;9.376;2023-02-20T07:30:50;99683.00;;;8.95;68.38
13312;BME280;34033;48.672;9.376;2023-02-20T07:33:17;99674.84;;;9.02;68.46
13312;BME280;34033;48.672;9.376;2023-02-20T07:35:43;99681.09;;;9.11;68.02
13312;BME280;34033;48.672;9.376;2023-02-20T07:38:09;99684.13;;;9.18;68.14
13312;BME280;34033;48.672;9.376;2023-02-20T07:40:34;99682.72;;;9.25;67.50
13312;BME280;34033;48.672;9.376;2023-02-20T07:42:59;99681.31;;;9.31;67.27
13312;BME280;34033;48.672;9.376;2023-02-20T07:45:25;99677.56;;;9.39;66.88
13312;BME280;34033;48.672;9.376;2023-02-20T07:47:50;99672.56;;;9.44;67.01
13312;BME280;34033;48.672;9.376;2023-02-20T07:50:16;99669.97;;;9.51;66.51
13312;BME280;34033;48.672;9.376;2023-02-20T07:52:42;99668.91;;;9.56;67.39
13312;BME280;34033;48.672;9.376;2023-02-20T07:55:11;99657.75;;;9.56;66.78
13312;BME280;34033;48.672;9.376;2023-02-20T07:57:38;99659.50;;;9.48;66.70
13312;BME280;34033;48.672;9.376;2023-02-20T08:00:04;99657.53;;;9.49;66.70
13312;BME280;34033;48.672;9.376;2023-02-20T08:02:29;99655.22;;;9.51;66.98
13312;BME280;34033;48.672;9.376;2023-02-20T08:04:54;99650.34;;;9.48;66.62
13312;BME280;34033;48.672;9.376;2023-02-20T08:07:20;99646.38;;;9.49;66.72
13312;BME280;34033;48.672;9.376;2023-02-20T08:09:46;99652.41;;;9.51;66.82
13312;BME280;34033;48.672;9.376;2023-02-20T08:12:12;99649.84;;;9.58;67.38
13312;BME280;34033;48.672;9.376;2023-02-20T08:14:37;99642.94;;;9.68;65.89
13312;BME280;34033;48.672;9.376;2023-02-20T08:17:03;99637.34;;;9.68;65.69
13312;BME280;34033;48.672;9.376;2023-02-20T08:19:28;99640.97;;;9.68;66.14
13312;BME280;34033;48.672;9.376;2023-02-20T08:21:53;99634.66;;;9.71;66.12
13312;BME280;34033;48.672;9.376;2023-02-20T08:24:19;99628.81;;;9.76;64.72
13312;BME280;34033;48.672;9.376;2023-02-20T08:26:45;99623.59;;;9.75;63.93
13312;BME280;34033;48.672;9.376;2023-02-20T08:29:11;99627.81;;;9.69;62.50
13312;BME280;34033;48.672;9.376;2023-02-20T08:31:36;99626.72;;;9.73;63.18
13312;BME280;34033;48.672;9.376;2023-02-20T08:34:02;99616.03;;;9.75;63.01
13312;BME280;34033;48.672;9.376;2023-02-20T08:36:27;99606.13;;;9.78;63.21
13312;BME280;34033;48.672;9.376;2023-02-20T08:38:52;99617.50;;;9.85;63.23
13312;BME280;34033;48.672;9.376;2023-02-20T08:41:19;99614.72;;;10.00;63.70
13312;BME280;34033;48.672;9.376;2023-02-20T08:43:44;99600.75;;;10.00;62.13
13312;BME280;34033;48.672;9.376;2023-02-20T08:46:10;99608.78;;;10.02;61.90
13312;BME280;34033;48.672;9.376;2023-02-20T08:48:35;99601.56;;;10.01;62.01
13312;BME280;34033;48.672;9.376;2023-02-20T08:51:01;99603.28;;;10.05;62.30
13312;BME280;34033;48.672;9.376;2023-02-20T08:53:26;99610.69;;;10.14;62.06
13312;BME280;34033;48.672;9.376;2023-02-20T08:55:52;99601.78;;;10.24;62.30
13312;BME280;34033;48.672;9.376;2023-02-20T08:58:21;99599.09;;;10.27;61.90
13312;BME280;34033;48.672;9.376;2023-02-20T09:00:47;99589.25;;;10.33;60.94
13312;BME280;34033;48.672;9.376;2023-02-20T09:03:12;99593.47;;;10.43;61.01
13312;BME280;34033;48.672;9.376;2023-02-20T09:05:38;99592.16;;;10.53;60.91
13312;BME280;34033;48.672;9.376;2023-02-20T09:08:03;99591.22;;;10.33;60.39
13312;BME280;34033;48.672;9.376;2023-02-20T09:10:29;99588.16;;;10.38;60.60
13312;BME280;34033;48.672;9.376;2023-02-20T09:12:54;99590.50;;;10.52;61.14
13312;BME280;34033;48.672;9.376;2023-02-20T09:15:19;99581.00;;;10.72;60.32
13312;BME280;34033;48.672;9.376;2023-02-20T09:17:48;99591.03;;;10.73;60.00
13312;BME280;34033;48.672;9.376;2023-02-20T09:20:15;99583.88;;;10.91;60.30
13312;BME280;34033;48.672;9.376;2023-02-20T09:22:41;99585.69;;;11.03;60.27
13312;BME280;34033;48.672;9.376;2023-02-20T09:25:06;99577.34;;;11.22;59.29
13312;BME280;34033;48.672;9.376;2023-02-20T09:27:33;99576.16;;;11.42;59.08
13312;BME280;34033;48.672;9.376;2023-02-20T09:29:58;99581.16;;;11.52;58.89
13312;BME280;34033;48.672;9.376;2023-02-20T09:32:24;99582.19;;;11.63;58.90
13312;BME280;34033;48.672;9.376;2023-02-20T09:34:49;99571.28;;;11.58;57.29
13312;BME280;34033;48.672;9.376;2023-02-20T09:37:15;99572.03;;;11.55;56.82
13312;BME280;34033;48.672;9.376;2023-02-20T09:39:40;99568.97;;;11.64;56.93
13312;BME280;34033;48.672;9.376;2023-02-20T09:47:55;99564.78;;;11.93;57.29
13312;BME280;34033;48.672;9.376;2023-02-20T09:53:05;99553.38;;;12.05;54.99
13312;BME280;34033;48.672;9.376;2023-02-20T09:55:39;99557.25;;;12.20;54.64
13312;BME280;34033;48.672;9.376;2023-02-20T09:58:06;99561.03;;;12.31;54.24
13312;BME280;34033;48.672;9.376;2023-02-20T10:00:37;99549.13;;;12.37;53.37
13312;BME280;34033;48.672;9.376;2023-02-20T10:03:27;99542.56;;;12.52;52.19
13312;BME280;34033;48.672;9.376;2023-02-20T10:05:57;99541.50;;;12.61;52.55
13312;BME280;34033;48.672;9.376;2023-02-20T10:08:23;99540.97;;;12.78;52.26
13312;BME280;34033;48.672;9.376;2023-02-20T10:10:51;99529.78;;;12.81;51.35
13312;BME280;34033;48.672;9.376;2023-02-20T10:17:02;99535.38;;;12.81;50.93
13312;BME280;34033;48.672;9.376;2023-02-20T10:22:25;99523.41;;;12.84;51.20
13312;BME280;34033;48.672;9.376;2023-02-20T10:24:58;99515.47;;;12.90;50.71
13312;BME280;34033;48.672;9.376;2023-02-20T10:30:16;99517.94;;;12.95;50.70
13312;BME280;34033;48.672;9.376;2023-02-20T10:32:58;99521.94;;;12.94;51.26
13312;BME280;34033;48.672;9.376;2023-02-20T10:35:40;99516.22;;;12.87;50.47
13312;BME280;34033;48.672;9.376;2023-02-20T10:38:09;99521.50;;;12.92;50.93
13312;BME280;34033;48.672;9.376;2023-02-20T10:46:33;99519.31;;;13.08;50.24
13312;BME280;34033;48.672;9.376;2023-02-20T10:49:06;99507.84;;;13.17;50.64
13312;BME280;34033;48.672;9.376;2023-02-20T10:51:42;99500.75;;;13.30;50.75
13312;BME280;34033;48.672;9.376;2023-02-20T10:54:14;99498.41;;;13.35;50.44
13312;BME280;34033;48.672;9.376;2023-02-20T10:59:45;99493.94;;;13.64;49.68
13312;BME280;34033;48.672;9.376;2023-02-20T11:02:22;99486.44;;;13.79;49.69
13312;BME280;34033;48.672;9.376;2023-02-20T11:04:54;99483.34;;;13.91;49.40
13312;BME280;34033;48.672;9.376;2023-02-20T11:07:22;99482.88;;;13.86;49.27
13312;BME280;34033;48.672;9.376;2023-02-20T11:09:47;99478.53;;;13.92;48.73
13312;BME280;34033;48.672;9.376;2023-02-20T11:12:34;99476.63;;;14.03;48.83
13312;BME280;34033;48.672;9.376;2023-02-20T11:15:15;99470.72;;;14.15;48.68
13312;BME280;34033;48.672;9.376;2023-02-20T11:17:43;99470.25;;;14.09;46.61
13312;BME280;34033;48.672;9.376;2023-02-20T11:23:41;99463.22;;;14.33;47.28
13312;BME280;34033;48.672;9.376;2023-02-20T11:28:42;99456.06;;;14.43;45.82
13312;BME280;34033;48.672;9.376;2023-02-20T11:31:08;99452.06;;;14.44;46.20
13312;BME280;34033;48.672;9.376;2023-02-20T11:33:36;99445.28;;;14.55;46.52
13312;BME280;34033;48.672;9.376;2023-02-20T11:36:14;99445.75;;;14.68;45.74
13312;BME280;34033;48.672;9.376;2023-02-20T11:38:41;99443.44;;;14.81;46.30
13312;BME280;34033;48.672;9.376;2023-02-20T11:41:23;99440.66;;;14.88;46.03
13312;BME280;34033;48.672;9.376;2023-02-20T11:46:30;99439.16;;;15.15;45.48
13312;BME280;34033;48.672;9.376;2023-02-20T12:01:54;99410.72;;;15.70;44.58
13312;BME280;34033;48.672;9.376;2023-02-20T12:04:23;99400.25;;;15.84;45.00
13312;BME280;34033;48.672;9.376;2023-02-20T12:06:49;99401.88;;;15.96;44.44
13312;BME280;34033;48.672;9.376;2023-02-20T12:09:19;99391.78;;;16.09;44.54
13312;BME280;34033;48.672;9.376;2023-02-20T12:11:48;99392.19;;;16.04;43.02
13312;BME280;34033;48.672;9.376;2023-02-20T12:14:16;99388.13;;;16.16;44.05
13312;BME280;34033;48.672;9.376;2023-02-20T12:19:27;99384.09;;;16.31;43.03
13312;BME280;34033;48.672;9.376;2023-02-20T12:22:35;99370.78;;;16.21;42.65
13312;BME280;34033;48.672;9.376;2023-02-20T12:38:58;99346.03;;;16.82;42.39
13312;BME280;34033;48.672;9.376;2023-02-20T12:49:50;99311.63;;;17.01;43.26
13312;BME280;34033;48.672;9.376;2023-02-20T12:55:17;99310.25;;;17.27;41.75
13312;BME280;34033;48.672;9.376;2023-02-20T13:01:00;99288.16;;;17.11;42.19
13312;BME280;34033;48.672;9.376;2023-02-20T13:06:35;99286.47;;;17.24;41.20
13312;BME280;34033;48.672;9.376;2023-02-20T13:09:13;99283.56;;;17.31;42.13
13312;BME280;34033;48.672;9.376;2023-02-20T13:11:42;99278.03;;;17.17;39.93
13312;BME280;34033;48.672;9.376;2023-02-20T13:17:55;99263.22;;;17.50;41.46
13312;BME280;34033;48.672;9.376;2023-02-20T13:19:55;99263.06;;;17.72;40.98
13312;BME280;34033;48.672;9.376;2023-02-20T13:22:22;99257.34;;;17.79;40.86
13312;BME280;34033;48.672;9.376;2023-02-20T13:24:47;99252.31;;;17.97;40.48
13312;BME280;34033;48.672;9.376;2023-02-20T13:27:30;99246.94;;;18.06;40.65
13312;BME280;34033;48.672;9.376;2023-02-20T13:30:02;99239.50;;;18.19;39.92
13312;BME280;34033;48.672;9.376;2023-02-20T13:32:34;99226.41;;;18.32;40.69
13312;BME280;34033;48.672;9.376;2023-02-20T13:35:44;99219.53;;;18.33;39.63
13312;BME280;34033;48.672;9.376;2023-02-20T13:38:16;99210.91;;;18.44;39.68
13312;BME280;34033;48.672;9.376;2023-02-20T13:41:01;99206.72;;;18.56;40.29
13312;BME280;34033;48.672;9.376;2023-02-20T13:43:29;99189.91;;;18.72;40.30
13312;BME280;34033;48.672;9.376;2023-02-20T13:53:45;99178.97;;;18.97;37.59
13312;BME280;34033;48.672;9.376;2023-02-20T13:56:21;99174.81;;;19.05;38.08
13312;BME280;34033;48.672;9.376;2023-02-20T13:58:48;99164.75;;;19.24;38.35
13312;BME280;34033;48.672;9.376;2023-02-20T14:01:14;99168.28;;;19.32;37.09
13312;BME280;34033;48.672;9.376;2023-02-20T14:03:39;99176.28;;;19.37;36.87
13312;BME280;34033;48.672;9.376;2023-02-20T14:06:13;99173.44;;;19.37;37.35
13312;BME280;34033;48.672;9.376;2023-02-20T14:08:44;99160.38;;;19.43;36.84
13312;BME280;34033;48.672;9.376;2023-02-20T14:11:36;99157.09;;;19.48;36.63
13312;BME280;34033;48.672;9.376;2023-02-20T14:14:09;99150.91;;;19.53;36.83
13312;BME280;34033;48.672;9.376;2023-02-20T14:16:37;99145.22;;;19.53;36.38
13312;BME280;34033;48.672;9.376;2023-02-20T14:19:13;99150.06;;;19.56;36.18
13312;BME280;34033;48.672;9.376;2023-02-20T14:21:41;99158.41;;;19.63;35.94
13312;BME280;34033;48.672;9.376;2023-02-20T14:24:22;99164.09;;;19.63;36.43
13312;BME280;34033;48.672;9.376;2023-02-20T14:26:48;99148.66;;;19.64;35.27
13312;BME280;34033;48.672;9.376;2023-02-20T14:29:26;99150.41;;;19.58;35.39
13312;BME280;34033;48.672;9.376;2023-02-20T14:31:53;99156.22;;;19.51;35.21
13312;BME280;34033;48.672;9.376;2023-02-20T14:34:33;99161.25;;;19.40;35.62
13312;BME280;34033;48.672;9.376;2023-02-20T14:42:35;99120.06;;;20.14;38.71
13312;BME280;34033;48.672;9.376;2023-02-20T14:45:08;99120.88;;;20.34;37.54
13312;BME280;34033;48.672;9.376;2023-02-20T14:48:00;99142.59;;;20.61;38.62
13312;BME280;34033;48.672;9.376;2023-02-20T14:53:05;99113.69;;;20.46;37.41
13312;BME280;34033;48.672;9.376;2023-02-20T14:55:36;99092.53;;;20.51;35.82
13312;BME280;34033;48.672;9.376;2023-02-20T14:58:12;99096.75;;;20.43;34.04
13312;BME280;34033;48.672;9.376;2023-02-20T15:00:38;99111.56;;;20.34;34.59
13312;BME280;34033;48.672;9.376;2023-02-20T15:03:19;99106.06;;;20.43;34.82
13312;BME280;34033;48.672;9.376;2023-02-20T15:05:44;99101.25;;;20.40;34.85
13312;BME280;34033;48.672;9.376;2023-02-20T15:10:44;99105.19;;;20.46;34.17
13312;BME280;34033;48.672;9.376;2023-02-20T15:13:13;99101.47;;;20.49;35.17
13312;BME280;34033;48.672;9.376;2023-02-20T15:15:42;99091.72;;;20.50;34.06
13312;BME280;34033;48.672;9.376;2023-02-20T15:18:11;99103.88;;;20.51;33.87
13312;BME280;34033;48.672;9.376;2023-02-20T15:20:40;99088.06;;;20.50;33.75
13312;BME280;34033;48.672;9.376;2023-02-20T15:23:28;99090.91;;;20.33;33.57
13312;BME280;34033;48.672;9.376;2023-02-20T15:25:54;99087.00;;;20.24;34.09
13312;BME280;34033;48.672;9.376;2023-02-20T15:33:40;99082.28;;;20.37;34.55
13312;BME280;34033;48.672;9.376;2023-02-20T15:36:10;99074.47;;;20.41;33.94
13312;BME280;34033;48.672;9.376;2023-02-20T15:38:37;99070.84;;;20.40;33.92